Main page
METAR-TAF:

METAR-TAF

Airports :

Angads Airport

Oujda, Morocco

latitude: 34-47N, longitude: 001-56W, elevation: 468 m

Current weather observation

The report was made 36 minutes ago, at 08:00 UTC
Wind 7 kt from the North/Northeast, varying between North/Northwest and Northeast
Temperature 13°C
Humidity 94%
Pressure 1014 hPa
Visibility 10 km or more

METAR: GMFO 210800Z 02007KT 340V040 9999 FEW005/// SCT014/// OVC020/// 13/12 Q1014 NOSIG

Time: 09:36 (08:36 UTC)

Forecast

The report was made 3 hours and 36 minutes ago, at 05:00 UTC
Forecast valid from 21 at 06 UTC to 22 at 12 UTC
Wind 4 kt from the North/Northeast
Visibility: 8000 m
Few clouds at a height of 1000 ft
Broken clouds at a height of 4000 ft
Broken clouds at a height of 27000 ft
light rain
Temporary
from 21 at 12 UTC to 21 at 18 UTC
Wind 14 kt from the North

TAF: GMFO 210500Z 2106/2212 02004KT 8000 -RA FEW010 BKN040 BKN270 TEMPO 2112/2118 36014KT

Weather observations and forecasts of more than 4000 airports (METAR and TAF reports).

The available stations are represented by yellow and red dots on the map.

Hover mouse over dot to see the name of the station.

Then click to see weather observations and forecasts.

To change the map : click on the green buttons with a black cross to zoom in, on the green button with a dash to zoom out, or on the green arrows for adjacent maps.


METAR-TAF: